createdAt,value
2019-05-29T00:01:47.055Z,10.90
2019-05-29T00:04:14.988Z,10.90
2019-05-29T00:06:42.406Z,10.80
2019-05-29T00:09:10.056Z,10.80
2019-05-29T00:11:37.511Z,10.80
2019-05-29T00:14:18.842Z,10.90
2019-05-29T00:16:34.158Z,10.70
2019-05-29T00:19:01.551Z,10.70
2019-05-29T00:21:29.186Z,10.70
2019-05-29T00:23:56.583Z,10.70
2019-05-29T00:26:24.340Z,10.70
2019-05-29T00:28:51.987Z,10.60
2019-05-29T00:31:19.491Z,10.60
2019-05-29T00:33:46.868Z,10.60
2019-05-29T00:36:14.450Z,10.60
2019-05-29T00:38:41.913Z,10.70
2019-05-29T00:41:09.308Z,10.70
2019-05-29T00:43:36.966Z,10.70
2019-05-29T00:46:04.358Z,10.70
2019-05-29T00:48:31.745Z,10.80
2019-05-29T00:50:59.263Z,10.80
2019-05-29T00:53:26.664Z,10.80
2019-05-29T00:55:54.058Z,10.90
2019-05-29T00:58:21.639Z,10.90
2019-05-29T01:00:49.028Z,10.90
2019-05-29T01:03:17.792Z,10.90
2019-05-29T01:05:45.479Z,10.90
2019-05-29T01:08:12.902Z,10.90
2019-05-29T01:10:40.270Z,10.90
2019-05-29T01:13:07.731Z,10.90
2019-05-29T01:15:35.115Z,10.80
2019-05-29T01:18:02.513Z,10.80
2019-05-29T01:20:29.951Z,10.80
2019-05-29T01:22:57.351Z,10.80
2019-05-29T01:25:24.736Z,10.60
2019-05-29T01:27:52.315Z,10.70
2019-05-29T01:30:19.707Z,10.60
2019-05-29T01:32:47.106Z,10.50
2019-05-29T01:35:15.680Z,10.50
2019-05-29T01:37:43.130Z,10.50
2019-05-29T01:40:20.950Z,10.50
2019-05-29T01:42:39.955Z,10.50
2019-05-29T01:45:08.471Z,10.60
2019-05-29T01:47:36.167Z,10.60
2019-05-29T01:50:04.383Z,10.60
2019-05-29T01:52:31.787Z,10.60
2019-05-29T01:54:59.171Z,10.60
2019-05-29T01:57:26.604Z,10.70
2019-05-29T01:59:54.005Z,10.80
2019-05-29T02:02:21.996Z,10.70
2019-05-29T02:04:49.739Z,10.70
2019-05-29T02:07:17.952Z,10.70
2019-05-29T02:09:45.445Z,10.70
2019-05-29T02:12:12.984Z,10.80
2019-05-29T02:14:40.379Z,10.80
2019-05-29T02:17:07.775Z,10.80
2019-05-29T02:19:35.368Z,10.80
2019-05-29T02:22:02.760Z,10.70
2019-05-29T02:24:30.147Z,10.70
2019-05-29T02:26:57.754Z,10.60
2019-05-29T02:29:25.159Z,10.60
2019-05-29T02:31:52.562Z,10.70
2019-05-29T02:34:20.161Z,10.60
2019-05-29T02:36:48.175Z,10.70
2019-05-29T02:39:15.574Z,10.70
2019-05-29T02:41:43.149Z,10.70
2019-05-29T02:44:10.543Z,10.80
2019-05-29T02:46:37.938Z,10.80
2019-05-29T02:49:05.536Z,10.70
2019-05-29T02:51:32.824Z,10.80
2019-05-29T02:54:00.234Z,10.60
2019-05-29T02:56:29.013Z,10.60
2019-05-29T02:58:56.621Z,10.60
2019-05-29T03:01:25.414Z,10.50
2019-05-29T03:03:53.247Z,10.60
2019-05-29T03:06:22.339Z,10.60
2019-05-29T03:08:50.559Z,10.70
2019-05-29T03:11:18.078Z,10.60
2019-05-29T03:13:45.722Z,10.70
2019-05-29T03:16:13.370Z,10.70
2019-05-29T03:18:40.987Z,10.70
2019-05-29T03:21:08.373Z,10.60
2019-05-29T03:23:36.434Z,10.60
2019-05-29T03:26:04.439Z,10.60
2019-05-29T03:28:32.459Z,10.60
2019-05-29T03:31:01.036Z,10.70
2019-05-29T03:33:35.567Z,10.60
2019-05-29T03:35:57.688Z,10.60
2019-05-29T03:38:26.102Z,10.60
2019-05-29T03:40:53.817Z,10.50
2019-05-29T03:43:21.200Z,10.50
2019-05-29T03:45:48.596Z,10.50
2019-05-29T03:48:16.204Z,10.50
2019-05-29T03:50:43.615Z,10.60
2019-05-29T03:53:11.008Z,10.60
2019-05-29T03:55:38.441Z,10.60
2019-05-29T03:58:05.823Z,10.60
2019-05-29T04:00:41.657Z,10.60
2019-05-29T04:03:02.467Z,10.60
2019-05-29T04:05:33.261Z,10.50
2019-05-29T04:08:00.626Z,10.50
2019-05-29T04:10:29.560Z,10.60
2019-05-29T04:12:59.518Z,10.60
2019-05-29T04:15:27.504Z,10.60
2019-05-29T04:17:57.099Z,10.50
2019-05-29T04:20:24.596Z,10.40
2019-05-29T04:22:53.005Z,10.40
2019-05-29T04:25:20.500Z,10.60
2019-05-29T04:27:50.016Z,10.60
2019-05-29T04:30:17.916Z,10.60
2019-05-29T04:32:45.500Z,10.60
2019-05-29T04:35:12.907Z,10.60
2019-05-29T04:37:40.321Z,10.60
2019-05-29T04:40:08.156Z,10.60
2019-05-29T04:42:37.371Z,10.70
2019-05-29T04:45:05.479Z,10.70
2019-05-29T04:47:33.335Z,10.70
2019-05-29T04:50:01.233Z,10.70
2019-05-29T04:52:29.109Z,10.80
2019-05-29T04:54:56.707Z,10.70
2019-05-29T04:57:24.095Z,10.70
2019-05-29T04:59:51.487Z,10.70
2019-05-29T05:02:19.350Z,10.60
2019-05-29T05:04:46.775Z,10.60
2019-05-29T05:07:14.719Z,10.50
2019-05-29T05:09:42.098Z,10.50
2019-05-29T05:12:09.480Z,10.60
2019-05-29T05:14:37.801Z,10.60
2019-05-29T05:17:05.332Z,10.60
2019-05-29T05:19:33.835Z,10.70
2019-05-29T05:22:01.379Z,10.60
2019-05-29T05:24:30.064Z,10.60
2019-05-29T05:26:57.580Z,10.60
2019-05-29T05:29:25.195Z,10.70
2019-05-29T05:31:52.588Z,10.70
2019-05-29T05:34:20.010Z,10.80
2019-05-29T05:36:47.463Z,10.80
2019-05-29T05:39:14.860Z,10.90
2019-05-29T05:41:42.273Z,10.90
2019-05-29T05:44:10.177Z,10.90
2019-05-29T05:46:37.563Z,11.00
2019-05-29T05:49:04.955Z,10.90
2019-05-29T05:51:33.456Z,10.90
2019-05-29T05:54:01.311Z,10.80
2019-05-29T05:56:28.724Z,10.90
2019-05-29T05:58:56.371Z,11.00
2019-05-29T06:01:23.807Z,11.00
2019-05-29T06:03:51.226Z,11.00
2019-05-29T06:06:18.985Z,11.00
2019-05-29T06:08:47.504Z,11.00
2019-05-29T06:11:14.887Z,11.00
2019-05-29T06:13:42.882Z,11.00
2019-05-29T06:16:10.363Z,11.00
2019-05-29T06:18:38.505Z,11.00
2019-05-29T06:21:06.180Z,10.90
2019-05-29T06:23:34.690Z,11.00
2019-05-29T06:26:02.172Z,11.00
2019-05-29T06:28:29.662Z,10.90
2019-05-29T06:30:57.069Z,10.90
2019-05-29T06:33:24.459Z,10.80
2019-05-29T06:35:51.889Z,10.80
2019-05-29T06:38:19.299Z,10.90
2019-05-29T06:40:46.709Z,11.00
2019-05-29T06:43:24.197Z,11.10
2019-05-29T06:45:51.927Z,11.20
2019-05-29T06:48:40.517Z,11.10
2019-05-29T06:50:53.848Z,11.20
2019-05-29T06:53:22.115Z,11.20
2019-05-29T06:55:53.871Z,11.10
2019-05-29T06:58:18.789Z,11.10
2019-05-29T07:00:46.845Z,11.10
2019-05-29T07:03:14.291Z,11.10
2019-05-29T07:05:46.472Z,11.10
2019-05-29T07:08:19.255Z,11.20
2019-05-29T07:10:42.441Z,11.00
2019-05-29T07:13:10.119Z,11.10
2019-05-29T07:15:38.588Z,11.20
2019-05-29T07:18:06.099Z,11.10
2019-05-29T07:20:33.552Z,11.00
2019-05-29T07:23:00.905Z,11.00
2019-05-29T07:25:28.346Z,11.00
2019-05-29T07:27:55.724Z,11.10
2019-05-29T07:30:23.429Z,11.20
2019-05-29T07:32:57.394Z,11.20
2019-05-29T07:35:20.071Z,11.10
2019-05-29T07:37:48.100Z,11.10
2019-05-29T07:40:16.063Z,11.10
2019-05-29T07:42:49.676Z,11.30
2019-05-29T07:45:12.975Z,11.30
2019-05-29T07:47:40.550Z,11.40
2019-05-29T07:50:08.431Z,11.40
2019-05-29T07:52:35.988Z,11.40
2019-05-29T07:55:03.995Z,11.30
2019-05-29T07:57:31.447Z,11.20
2019-05-29T07:59:58.839Z,11.30
2019-05-29T08:02:26.231Z,11.40
2019-05-29T08:04:53.883Z,11.60
2019-05-29T08:07:21.475Z,11.60
2019-05-29T08:09:49.843Z,11.70
2019-05-29T08:12:17.343Z,11.60
2019-05-29T08:14:45.835Z,11.60
2019-05-29T08:17:13.324Z,11.70
2019-05-29T08:19:56.989Z,11.80
2019-05-29T08:22:33.240Z,11.80
2019-05-29T08:24:49.509Z,11.80
2019-05-29T08:27:17.617Z,11.90
2019-05-29T08:29:45.008Z,12.00
2019-05-29T08:32:12.669Z,12.00
2019-05-29T08:34:40.875Z,12.00
2019-05-29T08:37:08.351Z,11.90
2019-05-29T08:39:37.035Z,12.10
2019-05-29T08:42:21.966Z,11.90
2019-05-29T08:44:33.907Z,12.00
2019-05-29T08:47:09.513Z,12.20
2019-05-29T08:49:30.534Z,12.40
2019-05-29T08:52:11.015Z,12.40
2019-05-29T08:54:27.219Z,12.60
2019-05-29T08:56:54.605Z,12.70
2019-05-29T08:59:22.022Z,12.90
2019-05-29T09:01:52.336Z,13.00
2019-05-29T09:04:18.643Z,13.00
2019-05-29T09:06:46.976Z,13.10
2019-05-29T09:09:14.815Z,13.00
2019-05-29T09:11:43.094Z,12.80
2019-05-29T09:14:10.451Z,12.60
2019-05-29T09:16:38.371Z,12.50
2019-05-29T09:19:05.751Z,12.60
2019-05-29T09:21:33.268Z,12.70
2019-05-29T09:24:00.934Z,12.80
2019-05-29T09:26:28.340Z,13.00
2019-05-29T09:28:55.747Z,12.90
2019-05-29T09:31:23.927Z,12.70
2019-05-29T09:33:51.419Z,12.70
2019-05-29T09:36:18.880Z,12.70
2019-05-29T09:38:46.594Z,12.90
2019-05-29T09:41:15.685Z,12.90
2019-05-29T09:43:57.674Z,12.80
2019-05-29T09:46:12.464Z,12.90
2019-05-29T09:48:49.122Z,13.00
2019-05-29T09:51:20.574Z,13.00
2019-05-29T09:53:38.305Z,12.90
2019-05-29T09:56:05.708Z,12.90
2019-05-29T09:58:33.185Z,13.00
2019-05-29T10:01:19.902Z,13.10
2019-05-29T10:03:29.812Z,13.00
2019-05-29T10:05:57.564Z,13.00
2019-05-29T10:08:25.179Z,13.10
2019-05-29T10:11:02.626Z,13.10
2019-05-29T10:13:21.838Z,13.30
2019-05-29T10:15:49.367Z,13.30
2019-05-29T10:18:31.390Z,13.30
2019-05-29T10:20:46.359Z,13.40
2019-05-29T10:23:14.875Z,13.40
2019-05-29T10:25:42.275Z,13.40
2019-05-29T10:28:09.913Z,13.30
2019-05-29T10:30:37.567Z,13.30
2019-05-29T10:33:04.947Z,13.00
2019-05-29T10:35:32.350Z,13.00
2019-05-29T10:37:59.789Z,13.00
2019-05-29T10:40:27.175Z,13.00
2019-05-29T10:42:54.589Z,13.10
2019-05-29T10:45:22.242Z,13.10
2019-05-29T10:47:49.833Z,13.20
2019-05-29T10:50:17.831Z,13.20
2019-05-29T10:52:45.857Z,13.10
2019-05-29T10:55:14.151Z,13.20
2019-05-29T10:57:41.541Z,13.30
2019-05-29T11:00:10.683Z,13.40
2019-05-29T11:02:38.112Z,13.40
2019-05-29T11:05:06.125Z,13.30
2019-05-29T11:07:33.567Z,13.30
2019-05-29T11:10:00.955Z,13.40
2019-05-29T11:12:28.363Z,13.60
2019-05-29T11:14:56.935Z,13.60
2019-05-29T11:17:24.579Z,13.60
2019-05-29T11:19:51.884Z,13.80
2019-05-29T11:22:26.167Z,13.70
2019-05-29T11:24:50.041Z,13.50
2019-05-29T11:27:17.532Z,13.70
2019-05-29T11:29:45.146Z,13.70
2019-05-29T11:32:12.581Z,13.60
2019-05-29T11:34:39.947Z,13.70
2019-05-29T11:37:07.411Z,13.70
2019-05-29T11:39:34.809Z,13.80
2019-05-29T11:42:03.174Z,13.70
2019-05-29T11:44:30.952Z,13.90
2019-05-29T11:46:58.363Z,13.80
2019-05-29T11:49:25.751Z,13.70
2019-05-29T11:51:53.787Z,13.90
2019-05-29T11:54:22.420Z,14.20
2019-05-29T11:56:51.790Z,14.10
2019-05-29T11:59:19.200Z,14.00
2019-05-29T12:01:50.033Z,14.00
2019-05-29T12:04:25.784Z,13.90
2019-05-29T12:06:45.057Z,13.80
2019-05-29T12:09:12.456Z,13.60
2019-05-29T12:11:39.849Z,13.50
2019-05-29T12:14:07.280Z,13.50
2019-05-29T12:16:34.737Z,13.30
2019-05-29T12:19:02.271Z,13.30
2019-05-29T12:21:29.840Z,13.40
2019-05-29T12:23:58.199Z,13.50
2019-05-29T12:26:25.663Z,13.50
2019-05-29T12:28:55.837Z,13.70
2019-05-29T12:31:22.660Z,13.80
2019-05-29T12:33:50.061Z,13.80
2019-05-29T12:36:18.197Z,13.80
2019-05-29T12:38:45.588Z,13.90
2019-05-29T12:41:12.990Z,14.00
2019-05-29T12:43:40.440Z,14.20
2019-05-29T12:46:07.838Z,14.10
2019-05-29T12:48:35.232Z,14.00
2019-05-29T12:51:04.139Z,14.00
2019-05-29T12:53:31.778Z,14.20
2019-05-29T12:56:00.566Z,14.40
2019-05-29T12:58:28.247Z,14.50
2019-05-29T13:00:56.412Z,14.60
2019-05-29T13:03:23.931Z,14.60
2019-05-29T13:05:51.743Z,14.60
2019-05-29T13:08:19.131Z,14.70
2019-05-29T13:10:46.534Z,14.70
2019-05-29T13:13:13.975Z,14.60
2019-05-29T13:15:41.388Z,14.30
2019-05-29T13:18:10.148Z,14.40
2019-05-29T13:20:38.039Z,14.20
2019-05-29T13:23:07.376Z,14.20
2019-05-29T13:25:35.040Z,14.20
2019-05-29T13:28:03.058Z,14.10
2019-05-29T13:30:31.670Z,14.10
2019-05-29T13:33:02.898Z,14.00
2019-05-29T13:35:28.560Z,14.00
2019-05-29T13:37:56.925Z,14.00
2019-05-29T13:40:24.368Z,14.00
2019-05-29T13:42:52.475Z,14.00
2019-05-29T13:45:20.079Z,14.10
2019-05-29T13:47:47.459Z,14.10
2019-05-29T13:50:15.304Z,14.10
2019-05-29T13:52:42.699Z,14.10
2019-05-29T13:55:10.625Z,14.30
2019-05-29T13:57:39.961Z,14.30
2019-05-29T14:00:30.301Z,14.50
2019-05-29T14:02:37.202Z,14.40
2019-05-29T14:05:06.967Z,14.40
2019-05-29T14:07:34.415Z,14.40
2019-05-29T14:10:03.852Z,14.50
2019-05-29T14:12:31.207Z,14.50
2019-05-29T14:14:59.850Z,14.40
2019-05-29T14:17:27.387Z,14.50
2019-05-29T14:19:54.947Z,14.50
2019-05-29T14:22:22.623Z,14.40
2019-05-29T14:24:50.544Z,14.50
2019-05-29T14:27:18.150Z,14.40
2019-05-29T14:29:45.551Z,14.40
2019-05-29T14:32:13.434Z,14.30
2019-05-29T14:34:41.364Z,14.40
2019-05-29T14:37:09.873Z,14.30
2019-05-29T14:39:37.371Z,14.00
2019-05-29T14:42:06.020Z,13.90
2019-05-29T14:44:33.561Z,13.80
2019-05-29T14:47:01.817Z,13.70
2019-05-29T14:49:29.514Z,13.70
2019-05-29T14:51:56.907Z,13.70
2019-05-29T14:54:40.671Z,13.50
2019-05-29T14:56:54.015Z,13.50
2019-05-29T14:59:21.644Z,13.50
2019-05-29T15:01:51.304Z,13.50
2019-05-29T15:04:18.395Z,13.40
2019-05-29T15:06:46.191Z,13.40
2019-05-29T15:09:13.856Z,13.40
2019-05-29T15:11:41.680Z,13.40
2019-05-29T15:14:10.138Z,13.40
2019-05-29T15:16:37.560Z,13.30
2019-05-29T15:19:05.095Z,13.30
2019-05-29T15:21:32.502Z,13.20
2019-05-29T15:24:00.027Z,13.10
2019-05-29T15:26:27.735Z,13.10
2019-05-29T15:28:55.124Z,13.10
2019-05-29T15:31:22.529Z,13.00
2019-05-29T15:33:49.960Z,12.90
2019-05-29T15:36:17.371Z,12.90
2019-05-29T15:38:44.764Z,12.70
2019-05-29T15:41:12.767Z,12.70
2019-05-29T15:43:40.351Z,12.80
2019-05-29T15:46:09.950Z,12.70
2019-05-29T15:48:37.195Z,12.80
2019-05-29T15:51:04.630Z,12.80
2019-05-29T15:53:32.037Z,12.70
2019-05-29T15:56:14.454Z,12.80
2019-05-29T15:58:28.668Z,12.60
2019-05-29T16:00:56.083Z,12.60
2019-05-29T16:03:23.547Z,12.60
2019-05-29T16:05:50.938Z,12.60
2019-05-29T16:08:18.422Z,12.60
2019-05-29T16:10:46.021Z,12.50
2019-05-29T16:13:14.855Z,12.60
2019-05-29T16:15:42.414Z,12.50
2019-05-29T16:18:20.361Z,12.50
2019-05-29T16:20:39.067Z,12.40
2019-05-29T16:23:06.712Z,12.50
2019-05-29T16:25:40.055Z,12.50
2019-05-29T16:28:03.659Z,12.50
2019-05-29T16:30:31.061Z,12.40
2019-05-29T16:32:58.608Z,12.40
2019-05-29T16:35:25.994Z,12.40
2019-05-29T16:37:53.455Z,12.40
2019-05-29T16:40:21.952Z,12.40
2019-05-29T16:42:49.610Z,12.40
2019-05-29T16:45:18.394Z,12.40
2019-05-29T16:47:46.047Z,12.40
2019-05-29T16:50:14.944Z,12.50
2019-05-29T16:52:42.534Z,12.50
2019-05-29T16:55:10.275Z,12.50
2019-05-29T16:57:37.662Z,12.40
2019-05-29T17:00:05.524Z,12.40
2019-05-29T17:02:33.251Z,12.50
2019-05-29T17:05:00.642Z,12.50
2019-05-29T17:07:28.023Z,12.40
2019-05-29T17:09:55.731Z,12.60
2019-05-29T17:12:23.141Z,12.60
2019-05-29T17:14:50.529Z,12.60
2019-05-29T17:17:18.621Z,12.50
2019-05-29T17:19:46.104Z,12.50
2019-05-29T17:22:14.514Z,12.50
2019-05-29T17:24:42.255Z,12.50
2019-05-29T17:27:10.096Z,12.50
2019-05-29T17:29:37.483Z,12.40
2019-05-29T17:32:05.039Z,12.40
2019-05-29T17:34:32.467Z,12.20
2019-05-29T17:36:59.911Z,12.30
2019-05-29T17:39:27.534Z,12.30
2019-05-29T17:41:54.943Z,12.30
2019-05-29T17:44:23.350Z,12.30
2019-05-29T17:46:51.107Z,12.30
2019-05-29T17:49:21.846Z,12.30
2019-05-29T17:51:47.681Z,12.30
2019-05-29T17:54:15.804Z,12.10
2019-05-29T17:56:43.250Z,12.10
2019-05-29T17:59:10.569Z,12.00
2019-05-29T18:01:38.035Z,11.80
2019-05-29T18:04:05.429Z,11.70
2019-05-29T18:06:32.839Z,11.60
2019-05-29T18:09:00.559Z,11.50
2019-05-29T18:11:27.959Z,11.40
2019-05-29T18:13:55.386Z,11.30
2019-05-29T18:16:23.557Z,11.10
2019-05-29T18:18:51.067Z,11.10
2019-05-29T18:21:19.566Z,11.00
2019-05-29T18:23:47.121Z,11.00
2019-05-29T18:26:15.097Z,10.90
2019-05-29T18:28:42.483Z,10.90
2019-05-29T18:31:10.279Z,10.90
2019-05-29T18:33:37.743Z,10.80
2019-05-29T18:36:05.131Z,10.80
2019-05-29T18:38:32.821Z,10.80
2019-05-29T18:41:00.218Z,10.70
2019-05-29T18:43:28.655Z,10.70
2019-05-29T18:45:56.227Z,10.70
2019-05-29T18:48:23.613Z,10.70
2019-05-29T18:50:51.129Z,10.70
2019-05-29T18:53:20.445Z,10.70
2019-05-29T18:55:48.074Z,10.70
2019-05-29T18:58:15.481Z,10.70
2019-05-29T19:00:42.938Z,10.70
2019-05-29T19:03:10.384Z,10.70
2019-05-29T19:05:37.728Z,10.60
2019-05-29T19:08:05.195Z,10.70
2019-05-29T19:10:32.583Z,10.60
2019-05-29T19:12:59.983Z,10.70
2019-05-29T19:15:28.079Z,10.70
2019-05-29T19:17:55.893Z,10.70
2019-05-29T19:20:24.216Z,10.60
2019-05-29T19:22:52.514Z,10.60
2019-05-29T19:25:20.295Z,10.60
2019-05-29T19:27:47.899Z,10.60
2019-05-29T19:30:16.847Z,10.70
2019-05-29T19:32:44.244Z,10.60
2019-05-29T19:35:11.675Z,10.60
2019-05-29T19:37:39.139Z,10.70
2019-05-29T19:40:07.762Z,10.60
2019-05-29T19:42:35.155Z,10.60
2019-05-29T19:45:02.959Z,10.60
2019-05-29T19:47:30.721Z,10.60
2019-05-29T19:49:58.190Z,10.60
2019-05-29T19:52:26.975Z,10.60
2019-05-29T19:54:54.597Z,10.60
2019-05-29T19:57:22.106Z,10.60
2019-05-29T19:59:49.666Z,10.60
2019-05-29T20:02:17.156Z,10.60
2019-05-29T20:04:44.507Z,10.60
2019-05-29T20:07:12.163Z,10.60
2019-05-29T20:09:39.663Z,10.60
2019-05-29T20:12:07.098Z,10.60
2019-05-29T20:14:35.811Z,10.60
2019-05-29T20:17:03.283Z,10.60
2019-05-29T20:19:34.472Z,10.60
2019-05-29T20:22:00.009Z,10.50
2019-05-29T20:24:28.651Z,10.60
2019-05-29T20:26:56.596Z,10.60
2019-05-29T20:29:24.120Z,10.50
2019-05-29T20:31:51.522Z,10.50
2019-05-29T20:34:18.907Z,10.50
2019-05-29T20:36:46.396Z,10.60
2019-05-29T20:39:13.803Z,10.60
2019-05-29T20:41:43.441Z,10.60
2019-05-29T20:44:10.449Z,10.60
2019-05-29T20:46:38.694Z,10.50
2019-05-29T20:49:06.139Z,10.50
2019-05-29T20:51:34.252Z,10.50
2019-05-29T20:54:01.851Z,10.60
2019-05-29T20:56:29.236Z,10.50
2019-05-29T20:58:56.662Z,10.50
2019-05-29T21:01:24.070Z,10.50
2019-05-29T21:03:51.466Z,10.50
2019-05-29T21:06:18.910Z,10.50
2019-05-29T21:08:46.298Z,10.50
2019-05-29T21:11:13.713Z,10.50
2019-05-29T21:13:41.566Z,10.50
2019-05-29T21:16:09.028Z,10.50
2019-05-29T21:18:36.416Z,10.50
2019-05-29T21:21:03.966Z,10.50
2019-05-29T21:23:31.371Z,10.50
2019-05-29T21:25:59.159Z,10.50
2019-05-29T21:28:39.216Z,10.50
2019-05-29T21:30:56.079Z,10.50
2019-05-29T21:33:23.559Z,10.50
2019-05-29T21:35:51.139Z,10.40
2019-05-29T21:38:18.543Z,10.40
2019-05-29T21:40:46.741Z,10.40
2019-05-29T21:43:14.549Z,10.50
2019-05-29T21:45:43.093Z,10.50
2019-05-29T21:48:10.547Z,10.50
2019-05-29T21:50:38.825Z,10.50
2019-05-29T21:53:06.511Z,10.60
2019-05-29T21:55:33.907Z,10.60
2019-05-29T21:58:01.344Z,10.60
2019-05-29T22:00:46.770Z,10.60
2019-05-29T22:03:14.203Z,10.60
2019-05-29T22:05:42.696Z,10.60
2019-05-29T22:08:10.249Z,10.60
2019-05-29T22:10:37.859Z,10.70
2019-05-29T22:13:05.331Z,10.70
2019-05-29T22:15:32.727Z,10.70
2019-05-29T22:18:01.278Z,10.70
2019-05-29T22:20:29.212Z,10.70
2019-05-29T22:22:57.159Z,10.70
2019-05-29T22:25:24.843Z,10.70
2019-05-29T22:27:53.377Z,10.70
2019-05-29T22:30:22.052Z,10.70
2019-05-29T22:32:49.531Z,10.70
2019-05-29T22:35:17.019Z,10.70
2019-05-29T22:37:44.424Z,10.80
2019-05-29T22:40:12.098Z,10.80
2019-05-29T22:42:39.483Z,10.70
2019-05-29T22:45:07.277Z,10.70
2019-05-29T22:47:34.689Z,10.80
2019-05-29T22:50:02.330Z,10.70
2019-05-29T22:52:29.819Z,10.80
2019-05-29T22:54:58.039Z,10.70
2019-05-29T22:57:25.568Z,10.70
2019-05-29T22:59:53.915Z,10.80
2019-05-29T23:02:21.547Z,10.70
2019-05-29T23:04:48.947Z,10.70
2019-05-29T23:07:16.447Z,10.70
2019-05-29T23:09:43.887Z,10.70
2019-05-29T23:12:11.271Z,10.70
2019-05-29T23:14:38.651Z,10.70
2019-05-29T23:17:06.107Z,10.70
2019-05-29T23:19:33.490Z,10.70
2019-05-29T23:22:01.167Z,10.60
2019-05-29T23:24:28.709Z,10.60
2019-05-29T23:26:56.684Z,10.60
2019-05-29T23:29:24.240Z,10.50
2019-05-29T23:31:52.851Z,10.50
2019-05-29T23:34:20.255Z,10.50
2019-05-29T23:36:47.640Z,10.40
2019-05-29T23:39:15.106Z,10.40
2019-05-29T23:41:42.507Z,10.40
2019-05-29T23:44:09.907Z,10.40
2019-05-29T23:46:37.344Z,10.40
2019-05-29T23:49:04.739Z,10.40
2019-05-29T23:51:32.143Z,10.40
2019-05-29T23:53:59.850Z,10.40
2019-05-29T23:56:27.344Z,10.50
2019-05-29T23:58:55.634Z,10.40
